sensor_id;sensor_type;location;lat;lon;timestamp;P1;durP1;ratioP1;P2;durP2;ratioP2
33760;SDS011;20084;47.912;19.044;2023-03-23T00:00:06;13.77;;;10.13;;
33760;SDS011;20084;47.912;19.044;2023-03-23T00:02:34;12.90;;;9.65;;
33760;SDS011;20084;47.912;19.044;2023-03-23T00:05:03;16.17;;;11.55;;
33760;SDS011;20084;47.912;19.044;2023-03-23T00:07:32;13.90;;;10.50;;
33760;SDS011;20084;47.912;19.044;2023-03-23T00:10:00;12.48;;;8.52;;
33760;SDS011;20084;47.912;19.044;2023-03-23T00:12:28;16.25;;;8.65;;
33760;SDS011;20084;47.912;19.044;2023-03-23T00:15:02;12.07;;;9.00;;
33760;SDS011;20084;47.912;19.044;2023-03-23T00:17:29;11.97;;;9.43;;
33760;SDS011;20084;47.912;19.044;2023-03-23T00:19:58;12.75;;;8.75;;
33760;SDS011;20084;47.912;19.044;2023-03-23T00:22:26;14.35;;;8.93;;
33760;SDS011;20084;47.912;19.044;2023-03-23T00:24:53;12.95;;;9.23;;
33760;SDS011;20084;47.912;19.044;2023-03-23T00:27:20;15.02;;;9.90;;
33760;SDS011;20084;47.912;19.044;2023-03-23T00:29:49;13.75;;;9.38;;
33760;SDS011;20084;47.912;19.044;2023-03-23T00:32:21;14.17;;;9.73;;
33760;SDS011;20084;47.912;19.044;2023-03-23T00:37:18;15.07;;;11.20;;
33760;SDS011;20084;47.912;19.044;2023-03-23T00:39:44;13.07;;;10.27;;
33760;SDS011;20084;47.912;19.044;2023-03-23T00:42:14;12.25;;;9.25;;
33760;SDS011;20084;47.912;19.044;2023-03-23T00:44:41;9.88;;;7.93;;
33760;SDS011;20084;47.912;19.044;2023-03-23T00:47:08;13.27;;;8.15;;
33760;SDS011;20084;47.912;19.044;2023-03-23T00:49:35;12.07;;;8.45;;
33760;SDS011;20084;47.912;19.044;2023-03-23T00:52:02;11.27;;;8.45;;
33760;SDS011;20084;47.912;19.044;2023-03-23T00:54:29;12.20;;;8.70;;
33760;SDS011;20084;47.912;19.044;2023-03-23T00:56:55;10.23;;;8.45;;
33760;SDS011;20084;47.912;19.044;2023-03-23T00:59:21;10.55;;;7.68;;
33760;SDS011;20084;47.912;19.044;2023-03-23T01:01:47;8.40;;;6.85;;
33760;SDS011;20084;47.912;19.044;2023-03-23T01:04:14;9.23;;;6.78;;
33760;SDS011;20084;47.912;19.044;2023-03-23T01:06:40;8.77;;;5.57;;
33760;SDS011;20084;47.912;19.044;2023-03-23T01:09:08;8.65;;;6.25;;
33760;SDS011;20084;47.912;19.044;2023-03-23T01:11:40;8.45;;;6.18;;
33760;SDS011;20084;47.912;19.044;2023-03-23T01:14:07;8.70;;;7.07;;
33760;SDS011;20084;47.912;19.044;2023-03-23T01:16:33;6.97;;;5.47;;
33760;SDS011;20084;47.912;19.044;2023-03-23T01:18:59;10.00;;;6.13;;
33760;SDS011;20084;47.912;19.044;2023-03-23T01:21:24;9.80;;;6.55;;
33760;SDS011;20084;47.912;19.044;2023-03-23T01:23:50;10.85;;;6.22;;
33760;SDS011;20084;47.912;19.044;2023-03-23T01:26:17;9.35;;;7.15;;
33760;SDS011;20084;47.912;19.044;2023-03-23T01:28:46;7.53;;;5.82;;
33760;SDS011;20084;47.912;19.044;2023-03-23T01:31:13;7.38;;;5.47;;
33760;SDS011;20084;47.912;19.044;2023-03-23T01:33:40;7.60;;;5.32;;
33760;SDS011;20084;47.912;19.044;2023-03-23T01:36:08;8.10;;;4.80;;
33760;SDS011;20084;47.912;19.044;2023-03-23T01:38:40;6.97;;;4.82;;
33760;SDS011;20084;47.912;19.044;2023-03-23T01:41:07;5.78;;;4.63;;
33760;SDS011;20084;47.912;19.044;2023-03-23T01:43:32;8.27;;;5.47;;
33760;SDS011;20084;47.912;19.044;2023-03-23T01:45:59;7.07;;;5.57;;
33760;SDS011;20084;47.912;19.044;2023-03-23T01:48:29;7.18;;;5.95;;
33760;SDS011;20084;47.912;19.044;2023-03-23T01:51:09;11.27;;;5.40;;
33760;SDS011;20084;47.912;19.044;2023-03-23T01:53:42;7.47;;;4.82;;
33760;SDS011;20084;47.912;19.044;2023-03-23T01:56:16;6.38;;;4.22;;
33760;SDS011;20084;47.912;19.044;2023-03-23T01:58:45;5.35;;;4.60;;
33760;SDS011;20084;47.912;19.044;2023-03-23T02:01:12;5.25;;;3.97;;
33760;SDS011;20084;47.912;19.044;2023-03-23T02:03:41;8.10;;;4.30;;
33760;SDS011;20084;47.912;19.044;2023-03-23T02:06:10;5.40;;;4.40;;
33760;SDS011;20084;47.912;19.044;2023-03-23T02:08:36;6.40;;;3.50;;
33760;SDS011;20084;47.912;19.044;2023-03-23T02:11:11;6.25;;;3.65;;
33760;SDS011;20084;47.912;19.044;2023-03-23T02:13:39;6.32;;;4.75;;
33760;SDS011;20084;47.912;19.044;2023-03-23T02:29:26;7.13;;;4.80;;
33760;SDS011;20084;47.912;19.044;2023-03-23T02:35:18;5.82;;;3.85;;
33760;SDS011;20084;47.912;19.044;2023-03-23T02:37:53;3.38;;;2.28;;
33760;SDS011;20084;47.912;19.044;2023-03-23T02:40:30;4.22;;;1.70;;
33760;SDS011;20084;47.912;19.044;2023-03-23T02:43:02;3.58;;;1.92;;
33760;SDS011;20084;47.912;19.044;2023-03-23T02:45:31;2.88;;;2.00;;
33760;SDS011;20084;47.912;19.044;2023-03-23T02:48:01;2.45;;;2.05;;
33760;SDS011;20084;47.912;19.044;2023-03-23T02:50:29;4.95;;;3.00;;
33760;SDS011;20084;47.912;19.044;2023-03-23T02:52:56;3.97;;;3.22;;
33760;SDS011;20084;47.912;19.044;2023-03-23T02:55:24;3.83;;;2.75;;
33760;SDS011;20084;47.912;19.044;2023-03-23T02:57:51;3.28;;;2.67;;
33760;SDS011;20084;47.912;19.044;2023-03-23T03:00:18;5.05;;;3.17;;
33760;SDS011;20084;47.912;19.044;2023-03-23T03:02:51;7.05;;;3.92;;
33760;SDS011;20084;47.912;19.044;2023-03-23T03:10:44;2.20;;;1.98;;
33760;SDS011;20084;47.912;19.044;2023-03-23T03:16:00;3.45;;;1.33;;
33760;SDS011;20084;47.912;19.044;2023-03-23T03:21:41;4.10;;;2.20;;
33760;SDS011;20084;47.912;19.044;2023-03-23T03:24:08;3.63;;;2.40;;
33760;SDS011;20084;47.912;19.044;2023-03-23T03:26:40;2.95;;;2.40;;
33760;SDS011;20084;47.912;19.044;2023-03-23T03:29:13;2.92;;;2.60;;
33760;SDS011;20084;47.912;19.044;2023-03-23T03:31:42;4.78;;;3.47;;
33760;SDS011;20084;47.912;19.044;2023-03-23T03:34:10;7.18;;;3.03;;
33760;SDS011;20084;47.912;19.044;2023-03-23T03:36:37;6.75;;;2.47;;
33760;SDS011;20084;47.912;19.044;2023-03-23T03:39:07;6.57;;;3.50;;
33760;SDS011;20084;47.912;19.044;2023-03-23T03:41:35;3.97;;;3.20;;
33760;SDS011;20084;47.912;19.044;2023-03-23T03:44:02;4.22;;;2.65;;
33760;SDS011;20084;47.912;19.044;2023-03-23T03:46:29;3.70;;;3.30;;
33760;SDS011;20084;47.912;19.044;2023-03-23T03:48:56;3.92;;;2.70;;
33760;SDS011;20084;47.912;19.044;2023-03-23T03:51:23;3.75;;;2.42;;
33760;SDS011;20084;47.912;19.044;2023-03-23T03:53:50;2.97;;;2.05;;
33760;SDS011;20084;47.912;19.044;2023-03-23T03:56:15;3.42;;;2.10;;
33760;SDS011;20084;47.912;19.044;2023-03-23T03:58:41;3.10;;;2.03;;
33760;SDS011;20084;47.912;19.044;2023-03-23T04:01:07;2.22;;;1.80;;
33760;SDS011;20084;47.912;19.044;2023-03-23T04:03:37;2.85;;;2.20;;
33760;SDS011;20084;47.912;19.044;2023-03-23T04:06:03;4.90;;;2.30;;
33760;SDS011;20084;47.912;19.044;2023-03-23T04:08:29;6.53;;;2.70;;
33760;SDS011;20084;47.912;19.044;2023-03-23T04:10:55;3.88;;;2.35;;
33760;SDS011;20084;47.912;19.044;2023-03-23T04:13:21;3.70;;;2.70;;
33760;SDS011;20084;47.912;19.044;2023-03-23T04:15:47;3.30;;;2.28;;
33760;SDS011;20084;47.912;19.044;2023-03-23T04:18:14;4.22;;;2.63;;
33760;SDS011;20084;47.912;19.044;2023-03-23T04:20:42;6.63;;;3.17;;
33760;SDS011;20084;47.912;19.044;2023-03-23T04:23:15;4.40;;;3.30;;
33760;SDS011;20084;47.912;19.044;2023-03-23T04:25:47;7.72;;;4.10;;
33760;SDS011;20084;47.912;19.044;2023-03-23T04:28:14;5.93;;;4.15;;
33760;SDS011;20084;47.912;19.044;2023-03-23T04:30:44;11.35;;;6.45;;
33760;SDS011;20084;47.912;19.044;2023-03-23T04:33:13;9.40;;;7.20;;
33760;SDS011;20084;47.912;19.044;2023-03-23T04:35:40;41.47;;;26.25;;
33760;SDS011;20084;47.912;19.044;2023-03-23T04:38:07;29.05;;;19.58;;
33760;SDS011;20084;47.912;19.044;2023-03-23T04:40:37;19.48;;;13.65;;
33760;SDS011;20084;47.912;19.044;2023-03-23T04:43:03;13.93;;;9.45;;
33760;SDS011;20084;47.912;19.044;2023-03-23T04:45:30;10.65;;;7.53;;
33760;SDS011;20084;47.912;19.044;2023-03-23T04:47:57;10.20;;;7.00;;
33760;SDS011;20084;47.912;19.044;2023-03-23T04:50:24;18.48;;;11.63;;
33760;SDS011;20084;47.912;19.044;2023-03-23T04:52:52;5.25;;;3.40;;
33760;SDS011;20084;47.912;19.044;2023-03-23T04:55:19;3.13;;;2.53;;
33760;SDS011;20084;47.912;19.044;2023-03-23T04:57:46;4.22;;;2.00;;
33760;SDS011;20084;47.912;19.044;2023-03-23T05:00:12;2.20;;;2.00;;
33760;SDS011;20084;47.912;19.044;2023-03-23T05:02:41;2.80;;;2.22;;
33760;SDS011;20084;47.912;19.044;2023-03-23T05:05:08;3.75;;;2.88;;
33760;SDS011;20084;47.912;19.044;2023-03-23T05:07:37;12.80;;;6.70;;
33760;SDS011;20084;47.912;19.044;2023-03-23T05:10:03;16.15;;;10.52;;
33760;SDS011;20084;47.912;19.044;2023-03-23T05:12:30;9.20;;;7.07;;
33760;SDS011;20084;47.912;19.044;2023-03-23T05:14:56;12.05;;;9.63;;
33760;SDS011;20084;47.912;19.044;2023-03-23T05:17:21;13.30;;;9.55;;
33760;SDS011;20084;47.912;19.044;2023-03-23T05:19:49;14.32;;;11.05;;
33760;SDS011;20084;47.912;19.044;2023-03-23T05:22:15;13.63;;;10.73;;
33760;SDS011;20084;47.912;19.044;2023-03-23T05:24:41;12.85;;;8.38;;
33760;SDS011;20084;47.912;19.044;2023-03-23T05:27:08;9.18;;;7.07;;
33760;SDS011;20084;47.912;19.044;2023-03-23T05:29:34;6.95;;;5.18;;
33760;SDS011;20084;47.912;19.044;2023-03-23T05:32:04;12.18;;;6.45;;
33760;SDS011;20084;47.912;19.044;2023-03-23T05:34:30;13.15;;;10.50;;
33760;SDS011;20084;47.912;19.044;2023-03-23T05:36:59;15.57;;;9.85;;
33760;SDS011;20084;47.912;19.044;2023-03-23T05:39:26;10.15;;;6.80;;
33760;SDS011;20084;47.912;19.044;2023-03-23T05:41:52;19.77;;;9.07;;
33760;SDS011;20084;47.912;19.044;2023-03-23T05:44:19;22.23;;;9.27;;
33760;SDS011;20084;47.912;19.044;2023-03-23T05:46:45;15.85;;;9.70;;
33760;SDS011;20084;47.912;19.044;2023-03-23T05:49:11;16.80;;;10.05;;
33760;SDS011;20084;47.912;19.044;2023-03-23T05:51:37;13.98;;;10.68;;
33760;SDS011;20084;47.912;19.044;2023-03-23T05:54:02;15.70;;;9.85;;
33760;SDS011;20084;47.912;19.044;2023-03-23T05:56:28;56.97;;;27.38;;
33760;SDS011;20084;47.912;19.044;2023-03-23T05:58:55;44.00;;;21.35;;
33760;SDS011;20084;47.912;19.044;2023-03-23T06:01:21;82.28;;;42.63;;
33760;SDS011;20084;47.912;19.044;2023-03-23T06:03:48;145.65;;;78.90;;
33760;SDS011;20084;47.912;19.044;2023-03-23T06:06:16;76.15;;;40.20;;
33760;SDS011;20084;47.912;19.044;2023-03-23T06:08:42;37.38;;;21.35;;
33760;SDS011;20084;47.912;19.044;2023-03-23T06:11:09;22.17;;;13.40;;
33760;SDS011;20084;47.912;19.044;2023-03-23T06:13:35;17.58;;;11.05;;
33760;SDS011;20084;47.912;19.044;2023-03-23T06:16:01;15.48;;;8.85;;
33760;SDS011;20084;47.912;19.044;2023-03-23T06:18:29;13.45;;;8.90;;
33760;SDS011;20084;47.912;19.044;2023-03-23T06:20:58;13.40;;;8.82;;
33760;SDS011;20084;47.912;19.044;2023-03-23T06:23:25;14.57;;;8.77;;
33760;SDS011;20084;47.912;19.044;2023-03-23T06:25:59;14.13;;;8.80;;
33760;SDS011;20084;47.912;19.044;2023-03-23T06:28:28;14.52;;;8.32;;
33760;SDS011;20084;47.912;19.044;2023-03-23T06:30:54;12.65;;;7.60;;
33760;SDS011;20084;47.912;19.044;2023-03-23T06:33:23;9.15;;;7.20;;
33760;SDS011;20084;47.912;19.044;2023-03-23T06:35:49;9.85;;;6.47;;
33760;SDS011;20084;47.912;19.044;2023-03-23T06:38:16;8.40;;;6.35;;
33760;SDS011;20084;47.912;19.044;2023-03-23T06:40:43;10.50;;;7.15;;
33760;SDS011;20084;47.912;19.044;2023-03-23T06:43:11;10.48;;;7.32;;
33760;SDS011;20084;47.912;19.044;2023-03-23T06:45:38;10.88;;;7.40;;
33760;SDS011;20084;47.912;19.044;2023-03-23T06:48:05;11.95;;;7.82;;
33760;SDS011;20084;47.912;19.044;2023-03-23T06:50:31;9.88;;;7.28;;
33760;SDS011;20084;47.912;19.044;2023-03-23T06:52:57;11.73;;;7.60;;
33760;SDS011;20084;47.912;19.044;2023-03-23T06:55:23;9.73;;;7.30;;
33760;SDS011;20084;47.912;19.044;2023-03-23T06:57:49;10.95;;;7.38;;
33760;SDS011;20084;47.912;19.044;2023-03-23T07:00:14;9.57;;;7.30;;
33760;SDS011;20084;47.912;19.044;2023-03-23T07:02:40;10.30;;;6.45;;
33760;SDS011;20084;47.912;19.044;2023-03-23T07:05:06;9.23;;;6.53;;
33760;SDS011;20084;47.912;19.044;2023-03-23T07:07:34;11.88;;;7.70;;
33760;SDS011;20084;47.912;19.044;2023-03-23T07:10:00;11.05;;;6.95;;
33760;SDS011;20084;47.912;19.044;2023-03-23T07:12:27;10.25;;;6.70;;
33760;SDS011;20084;47.912;19.044;2023-03-23T07:14:54;9.52;;;6.68;;
33760;SDS011;20084;47.912;19.044;2023-03-23T07:17:20;7.97;;;5.50;;
33760;SDS011;20084;47.912;19.044;2023-03-23T07:19:46;8.18;;;6.68;;
33760;SDS011;20084;47.912;19.044;2023-03-23T07:22:12;9.68;;;6.45;;
33760;SDS011;20084;47.912;19.044;2023-03-23T07:24:37;10.60;;;6.63;;
33760;SDS011;20084;47.912;19.044;2023-03-23T07:27:03;10.68;;;6.15;;
33760;SDS011;20084;47.912;19.044;2023-03-23T07:29:29;8.38;;;6.22;;
33760;SDS011;20084;47.912;19.044;2023-03-23T07:31:55;8.50;;;5.80;;
33760;SDS011;20084;47.912;19.044;2023-03-23T07:34:22;7.90;;;6.30;;
33760;SDS011;20084;47.912;19.044;2023-03-23T07:36:48;9.25;;;6.50;;
33760;SDS011;20084;47.912;19.044;2023-03-23T07:39:13;10.10;;;5.80;;
33760;SDS011;20084;47.912;19.044;2023-03-23T07:41:39;11.52;;;5.70;;
33760;SDS011;20084;47.912;19.044;2023-03-23T07:44:05;9.35;;;5.80;;
33760;SDS011;20084;47.912;19.044;2023-03-23T07:46:31;13.80;;;5.53;;
33760;SDS011;20084;47.912;19.044;2023-03-23T07:48:57;8.43;;;5.80;;
33760;SDS011;20084;47.912;19.044;2023-03-23T07:51:24;5.60;;;4.93;;
33760;SDS011;20084;47.912;19.044;2023-03-23T07:53:50;9.27;;;5.70;;
33760;SDS011;20084;47.912;19.044;2023-03-23T07:56:16;6.20;;;5.10;;
33760;SDS011;20084;47.912;19.044;2023-03-23T07:58:47;8.73;;;5.63;;
33760;SDS011;20084;47.912;19.044;2023-03-23T08:01:13;7.10;;;5.18;;
33760;SDS011;20084;47.912;19.044;2023-03-23T08:03:39;5.22;;;4.47;;
33760;SDS011;20084;47.912;19.044;2023-03-23T08:06:05;6.45;;;5.18;;
33760;SDS011;20084;47.912;19.044;2023-03-23T08:08:31;7.78;;;5.45;;
33760;SDS011;20084;47.912;19.044;2023-03-23T08:10:57;5.97;;;5.25;;
33760;SDS011;20084;47.912;19.044;2023-03-23T08:13:23;6.22;;;4.57;;
33760;SDS011;20084;47.912;19.044;2023-03-23T08:15:49;5.05;;;4.18;;
33760;SDS011;20084;47.912;19.044;2023-03-23T08:18:16;6.00;;;4.38;;
33760;SDS011;20084;47.912;19.044;2023-03-23T08:20:42;5.85;;;4.45;;
33760;SDS011;20084;47.912;19.044;2023-03-23T08:23:09;5.63;;;4.43;;
33760;SDS011;20084;47.912;19.044;2023-03-23T08:25:35;5.35;;;4.13;;
33760;SDS011;20084;47.912;19.044;2023-03-23T08:28:01;6.97;;;4.63;;
33760;SDS011;20084;47.912;19.044;2023-03-23T08:30:27;5.95;;;4.43;;
33760;SDS011;20084;47.912;19.044;2023-03-23T08:32:55;5.13;;;3.85;;
33760;SDS011;20084;47.912;19.044;2023-03-23T08:35:22;4.57;;;3.60;;
33760;SDS011;20084;47.912;19.044;2023-03-23T08:37:48;6.85;;;3.45;;
33760;SDS011;20084;47.912;19.044;2023-03-23T08:40:19;3.33;;;2.78;;
33760;SDS011;20084;47.912;19.044;2023-03-23T08:42:48;3.03;;;2.55;;
33760;SDS011;20084;47.912;19.044;2023-03-23T08:45:16;4.28;;;2.78;;
33760;SDS011;20084;47.912;19.044;2023-03-23T08:47:44;4.57;;;3.20;;
33760;SDS011;20084;47.912;19.044;2023-03-23T08:50:12;5.40;;;3.38;;
33760;SDS011;20084;47.912;19.044;2023-03-23T08:52:39;9.07;;;3.88;;
33760;SDS011;20084;47.912;19.044;2023-03-23T08:55:06;4.03;;;3.28;;
33760;SDS011;20084;47.912;19.044;2023-03-23T08:57:34;4.45;;;3.38;;
33760;SDS011;20084;47.912;19.044;2023-03-23T09:00:01;4.07;;;3.30;;
33760;SDS011;20084;47.912;19.044;2023-03-23T09:02:39;4.40;;;3.22;;
33760;SDS011;20084;47.912;19.044;2023-03-23T09:05:05;3.50;;;3.05;;
33760;SDS011;20084;47.912;19.044;2023-03-23T09:07:32;5.05;;;3.35;;
33760;SDS011;20084;47.912;19.044;2023-03-23T09:09:57;4.28;;;3.42;;
33760;SDS011;20084;47.912;19.044;2023-03-23T09:12:23;5.25;;;3.63;;
33760;SDS011;20084;47.912;19.044;2023-03-23T09:14:49;5.47;;;3.72;;
33760;SDS011;20084;47.912;19.044;2023-03-23T09:17:15;5.90;;;3.40;;
33760;SDS011;20084;47.912;19.044;2023-03-23T09:19:40;4.10;;;3.30;;
33760;SDS011;20084;47.912;19.044;2023-03-23T09:22:06;5.30;;;3.15;;
33760;SDS011;20084;47.912;19.044;2023-03-23T09:24:33;5.70;;;3.10;;
33760;SDS011;20084;47.912;19.044;2023-03-23T09:26:59;4.90;;;3.55;;
33760;SDS011;20084;47.912;19.044;2023-03-23T09:29:25;9.45;;;3.72;;
33760;SDS011;20084;47.912;19.044;2023-03-23T09:31:51;3.40;;;3.10;;
33760;SDS011;20084;47.912;19.044;2023-03-23T09:34:18;3.22;;;2.80;;
33760;SDS011;20084;47.912;19.044;2023-03-23T09:36:43;6.20;;;4.55;;
33760;SDS011;20084;47.912;19.044;2023-03-23T09:39:10;4.32;;;3.42;;
33760;SDS011;20084;47.912;19.044;2023-03-23T09:41:41;6.22;;;3.45;;
33760;SDS011;20084;47.912;19.044;2023-03-23T09:50:08;4.32;;;3.67;;
33760;SDS011;20084;47.912;19.044;2023-03-23T09:52:44;4.63;;;3.67;;
33760;SDS011;20084;47.912;19.044;2023-03-23T09:55:16;6.15;;;3.95;;
33760;SDS011;20084;47.912;19.044;2023-03-23T10:06:03;6.45;;;4.07;;
33760;SDS011;20084;47.912;19.044;2023-03-23T10:08:30;8.90;;;6.00;;
33760;SDS011;20084;47.912;19.044;2023-03-23T10:11:04;6.68;;;5.65;;
33760;SDS011;20084;47.912;19.044;2023-03-23T10:13:53;11.43;;;5.78;;
33760;SDS011;20084;47.912;19.044;2023-03-23T10:16:31;5.60;;;4.20;;
33760;SDS011;20084;47.912;19.044;2023-03-23T10:21:27;6.85;;;4.60;;
33760;SDS011;20084;47.912;19.044;2023-03-23T10:23:59;9.73;;;4.82;;
33760;SDS011;20084;47.912;19.044;2023-03-23T10:26:34;5.78;;;4.82;;
33760;SDS011;20084;47.912;19.044;2023-03-23T10:34:35;5.90;;;4.65;;
33760;SDS011;20084;47.912;19.044;2023-03-23T10:39:54;5.63;;;3.95;;
33760;SDS011;20084;47.912;19.044;2023-03-23T10:42:24;8.18;;;5.75;;
33760;SDS011;20084;47.912;19.044;2023-03-23T10:44:51;9.98;;;6.68;;
33760;SDS011;20084;47.912;19.044;2023-03-23T10:47:18;11.23;;;5.30;;
33760;SDS011;20084;47.912;19.044;2023-03-23T10:57:33;7.95;;;4.93;;
33760;SDS011;20084;47.912;19.044;2023-03-23T11:00:04;7.30;;;5.00;;
33760;SDS011;20084;47.912;19.044;2023-03-23T11:02:43;5.03;;;4.53;;
33760;SDS011;20084;47.912;19.044;2023-03-23T11:05:21;6.15;;;4.75;;
33760;SDS011;20084;47.912;19.044;2023-03-23T11:07:54;8.00;;;4.50;;
33760;SDS011;20084;47.912;19.044;2023-03-23T11:12:49;11.70;;;5.95;;
33760;SDS011;20084;47.912;19.044;2023-03-23T11:15:37;8.80;;;4.47;;
33760;SDS011;20084;47.912;19.044;2023-03-23T11:18:08;9.45;;;6.35;;
33760;SDS011;20084;47.912;19.044;2023-03-23T11:20:37;9.10;;;5.57;;
33760;SDS011;20084;47.912;19.044;2023-03-23T11:28:53;10.32;;;5.85;;
33760;SDS011;20084;47.912;19.044;2023-03-23T11:31:24;8.18;;;5.43;;
33760;SDS011;20084;47.912;19.044;2023-03-23T11:33:56;8.60;;;5.47;;
33760;SDS011;20084;47.912;19.044;2023-03-23T11:36:47;13.13;;;4.43;;
33760;SDS011;20084;47.912;19.044;2023-03-23T11:42:18;7.05;;;5.28;;
33760;SDS011;20084;47.912;19.044;2023-03-23T11:47:59;7.25;;;4.55;;
33760;SDS011;20084;47.912;19.044;2023-03-23T11:51:00;10.88;;;6.15;;
33760;SDS011;20084;47.912;19.044;2023-03-23T11:53:45;5.43;;;4.53;;
33760;SDS011;20084;47.912;19.044;2023-03-23T11:58:59;5.63;;;4.30;;
33760;SDS011;20084;47.912;19.044;2023-03-23T12:07:45;6.40;;;4.20;;
33760;SDS011;20084;47.912;19.044;2023-03-23T12:10:46;7.38;;;4.25;;
33760;SDS011;20084;47.912;19.044;2023-03-23T12:16:00;5.45;;;3.90;;
33760;SDS011;20084;47.912;19.044;2023-03-23T12:18:52;9.52;;;3.20;;
33760;SDS011;20084;47.912;19.044;2023-03-23T12:21:28;4.07;;;2.80;;
33760;SDS011;20084;47.912;19.044;2023-03-23T12:26:57;7.88;;;3.20;;
33760;SDS011;20084;47.912;19.044;2023-03-23T12:35:32;2.88;;;2.65;;
33760;SDS011;20084;47.912;19.044;2023-03-23T12:41:15;3.50;;;3.17;;
33760;SDS011;20084;47.912;19.044;2023-03-23T12:44:03;3.40;;;2.33;;
33760;SDS011;20084;47.912;19.044;2023-03-23T12:46:48;15.38;;;2.90;;
33760;SDS011;20084;47.912;19.044;2023-03-23T12:52:10;6.07;;;2.97;;
33760;SDS011;20084;47.912;19.044;2023-03-23T12:54:48;3.97;;;3.13;;
33760;SDS011;20084;47.912;19.044;2023-03-23T12:57:46;4.53;;;2.97;;
33760;SDS011;20084;47.912;19.044;2023-03-23T13:00:25;3.20;;;2.75;;
33760;SDS011;20084;47.912;19.044;2023-03-23T13:06:22;6.07;;;3.38;;
33760;SDS011;20084;47.912;19.044;2023-03-23T13:11:43;3.88;;;2.10;;
33760;SDS011;20084;47.912;19.044;2023-03-23T13:23:00;3.17;;;2.25;;
33760;SDS011;20084;47.912;19.044;2023-03-23T13:28:49;4.07;;;2.40;;
33760;SDS011;20084;47.912;19.044;2023-03-23T13:31:39;5.38;;;3.00;;
33760;SDS011;20084;47.912;19.044;2023-03-23T13:36:55;5.05;;;3.05;;
33760;SDS011;20084;47.912;19.044;2023-03-23T13:49:49;8.85;;;4.82;;
33760;SDS011;20084;47.912;19.044;2023-03-23T13:54:51;2.83;;;2.50;;
33760;SDS011;20084;47.912;19.044;2023-03-23T13:57:35;6.38;;;2.78;;
33760;SDS011;20084;47.912;19.044;2023-03-23T14:00:25;3.10;;;1.80;;
33760;SDS011;20084;47.912;19.044;2023-03-23T14:08:38;2.88;;;2.00;;
33760;SDS011;20084;47.912;19.044;2023-03-23T14:11:11;3.22;;;1.90;;
33760;SDS011;20084;47.912;19.044;2023-03-23T14:16:25;4.40;;;2.13;;
33760;SDS011;20084;47.912;19.044;2023-03-23T14:18:57;3.13;;;2.22;;
33760;SDS011;20084;47.912;19.044;2023-03-23T14:21:35;4.40;;;1.63;;
33760;SDS011;20084;47.912;19.044;2023-03-23T14:24:27;4.75;;;2.05;;
33760;SDS011;20084;47.912;19.044;2023-03-23T14:27:07;3.28;;;2.08;;
33760;SDS011;20084;47.912;19.044;2023-03-23T14:29:33;4.72;;;2.15;;
33760;SDS011;20084;47.912;19.044;2023-03-23T14:31:59;3.90;;;1.80;;
33760;SDS011;20084;47.912;19.044;2023-03-23T14:34:26;3.45;;;2.03;;
33760;SDS011;20084;47.912;19.044;2023-03-23T14:36:54;2.47;;;1.33;;
33760;SDS011;20084;47.912;19.044;2023-03-23T14:39:30;2.40;;;1.50;;
33760;SDS011;20084;47.912;19.044;2023-03-23T14:42:09;4.45;;;1.58;;
33760;SDS011;20084;47.912;19.044;2023-03-23T14:44:41;4.70;;;1.30;;
33760;SDS011;20084;47.912;19.044;2023-03-23T14:47:22;3.67;;;1.60;;
33760;SDS011;20084;47.912;19.044;2023-03-23T14:49:57;1.70;;;1.55;;
33760;SDS011;20084;47.912;19.044;2023-03-23T14:52:26;2.13;;;1.60;;
33760;SDS011;20084;47.912;19.044;2023-03-23T14:54:53;3.28;;;1.83;;
33760;SDS011;20084;47.912;19.044;2023-03-23T14:57:27;1.50;;;1.40;;
33760;SDS011;20084;47.912;19.044;2023-03-23T14:59:54;6.85;;;1.70;;
33760;SDS011;20084;47.912;19.044;2023-03-23T15:02:29;7.68;;;1.40;;
33760;SDS011;20084;47.912;19.044;2023-03-23T15:05:21;3.83;;;1.50;;
33760;SDS011;20084;47.912;19.044;2023-03-23T15:07:55;6.43;;;2.53;;
33760;SDS011;20084;47.912;19.044;2023-03-23T15:10:25;3.00;;;1.67;;
33760;SDS011;20084;47.912;19.044;2023-03-23T15:12:51;3.95;;;1.75;;
33760;SDS011;20084;47.912;19.044;2023-03-23T15:15:26;2.85;;;2.28;;
33760;SDS011;20084;47.912;19.044;2023-03-23T15:17:55;1.98;;;1.75;;
33760;SDS011;20084;47.912;19.044;2023-03-23T15:22:54;5.35;;;1.80;;
33760;SDS011;20084;47.912;19.044;2023-03-23T15:25:21;2.85;;;1.42;;
33760;SDS011;20084;47.912;19.044;2023-03-23T15:27:52;2.20;;;1.92;;
33760;SDS011;20084;47.912;19.044;2023-03-23T15:32:53;6.43;;;2.63;;
33760;SDS011;20084;47.912;19.044;2023-03-23T15:35:24;2.20;;;2.00;;
33760;SDS011;20084;47.912;19.044;2023-03-23T15:37:51;2.63;;;1.40;;
33760;SDS011;20084;47.912;19.044;2023-03-23T15:40:22;3.80;;;2.08;;
33760;SDS011;20084;47.912;19.044;2023-03-23T15:42:50;6.32;;;2.88;;
33760;SDS011;20084;47.912;19.044;2023-03-23T15:45:31;2.20;;;2.00;;
33760;SDS011;20084;47.912;19.044;2023-03-23T15:48:03;2.03;;;1.80;;
33760;SDS011;20084;47.912;19.044;2023-03-23T15:50:35;2.75;;;1.77;;
33760;SDS011;20084;47.912;19.044;2023-03-23T15:53:04;4.50;;;2.13;;
33760;SDS011;20084;47.912;19.044;2023-03-23T15:55:43;4.95;;;2.35;;
33760;SDS011;20084;47.912;19.044;2023-03-23T15:58:10;6.32;;;2.38;;
33760;SDS011;20084;47.912;19.044;2023-03-23T16:00:37;2.83;;;2.00;;
33760;SDS011;20084;47.912;19.044;2023-03-23T16:03:05;6.75;;;2.25;;
33760;SDS011;20084;47.912;19.044;2023-03-23T16:05:36;2.30;;;2.03;;
33760;SDS011;20084;47.912;19.044;2023-03-23T16:08:01;4.22;;;3.10;;
33760;SDS011;20084;47.912;19.044;2023-03-23T16:10:28;6.30;;;3.63;;
33760;SDS011;20084;47.912;19.044;2023-03-23T16:12:54;6.60;;;3.10;;
33760;SDS011;20084;47.912;19.044;2023-03-23T16:15:20;3.78;;;2.20;;
33760;SDS011;20084;47.912;19.044;2023-03-23T16:17:45;5.05;;;3.25;;
33760;SDS011;20084;47.912;19.044;2023-03-23T16:20:15;2.60;;;2.38;;
33760;SDS011;20084;47.912;19.044;2023-03-23T16:22:43;3.20;;;2.58;;
33760;SDS011;20084;47.912;19.044;2023-03-23T16:25:10;3.10;;;2.75;;
33760;SDS011;20084;47.912;19.044;2023-03-23T16:27:37;9.63;;;7.50;;
33760;SDS011;20084;47.912;19.044;2023-03-23T16:30:37;5.85;;;4.53;;
33760;SDS011;20084;47.912;19.044;2023-03-23T16:32:57;4.55;;;2.78;;
33760;SDS011;20084;47.912;19.044;2023-03-23T16:35:23;9.18;;;4.47;;
33760;SDS011;20084;47.912;19.044;2023-03-23T16:37:50;9.63;;;7.07;;
33760;SDS011;20084;47.912;19.044;2023-03-23T16:40:18;6.70;;;4.45;;
33760;SDS011;20084;47.912;19.044;2023-03-23T16:42:44;6.55;;;4.80;;
33760;SDS011;20084;47.912;19.044;2023-03-23T16:45:11;6.57;;;3.35;;
33760;SDS011;20084;47.912;19.044;2023-03-23T16:47:37;7.03;;;3.53;;
33760;SDS011;20084;47.912;19.044;2023-03-23T16:50:04;4.25;;;3.10;;
33760;SDS011;20084;47.912;19.044;2023-03-23T16:52:32;3.35;;;3.00;;
33760;SDS011;20084;47.912;19.044;2023-03-23T16:54:58;3.55;;;3.03;;
33760;SDS011;20084;47.912;19.044;2023-03-23T16:57:24;6.53;;;5.43;;
33760;SDS011;20084;47.912;19.044;2023-03-23T16:59:51;3.58;;;3.20;;
33760;SDS011;20084;47.912;19.044;2023-03-23T17:02:16;10.25;;;9.13;;
33760;SDS011;20084;47.912;19.044;2023-03-23T17:04:43;14.88;;;10.02;;
33760;SDS011;20084;47.912;19.044;2023-03-23T17:07:10;8.93;;;5.10;;
33760;SDS011;20084;47.912;19.044;2023-03-23T17:09:37;10.98;;;4.90;;
33760;SDS011;20084;47.912;19.044;2023-03-23T17:12:03;5.30;;;4.15;;
33760;SDS011;20084;47.912;19.044;2023-03-23T17:14:29;5.25;;;3.63;;